createdAt,value
2023-03-05T00:00:23.969Z,0.54
2023-03-05T00:01:23.986Z,0.54
2023-03-05T00:02:24.026Z,0.53
2023-03-05T00:03:24.070Z,0.53
2023-03-05T00:04:23.976Z,0.52
2023-03-05T00:05:23.977Z,0.54
2023-03-05T00:06:23.958Z,0.55
2023-03-05T00:07:23.969Z,0.53
2023-03-05T00:08:23.976Z,0.55
2023-03-05T00:09:24.020Z,0.54
2023-03-05T00:10:23.952Z,0.54
2023-03-05T00:11:23.948Z,0.55
2023-03-05T00:12:23.941Z,0.54
2023-03-05T00:13:23.937Z,0.54
2023-03-05T00:14:23.943Z,0.53
2023-03-05T00:15:23.988Z,0.55
2023-03-05T00:16:23.968Z,0.55
2023-03-05T00:17:23.949Z,0.54
2023-03-05T00:18:23.959Z,0.54
2023-03-05T00:19:22.948Z,0.55
2023-03-05T00:20:22.960Z,0.54
2023-03-05T00:21:22.962Z,0.53
2023-03-05T00:22:23.973Z,0.53
2023-03-05T00:23:23.992Z,0.55
2023-03-05T00:24:23.981Z,0.53
2023-03-05T00:25:24.061Z,0.54
2023-03-05T00:26:24.035Z,0.54
2023-03-05T00:27:23.031Z,0.53
2023-03-05T00:28:24.053Z,0.53
2023-03-05T00:29:24.047Z,0.53
2023-03-05T00:30:24.046Z,0.53
2023-03-05T00:31:24.083Z,0.53
2023-03-05T00:32:24.094Z,0.55
2023-03-05T00:33:24.035Z,0.54
2023-03-05T00:34:24.036Z,0.54
2023-03-05T00:35:24.135Z,0.55
2023-03-05T00:36:24.036Z,0.54
2023-03-05T00:37:24.036Z,0.54
2023-03-05T00:38:24.025Z,0.54
2023-03-05T00:39:24.024Z,0.54
2023-03-05T00:40:24.120Z,0.55
2023-03-05T00:41:23.062Z,0.55
2023-03-05T00:42:24.022Z,0.55
2023-03-05T00:43:23.034Z,0.55
2023-03-05T00:44:23.036Z,0.55
2023-03-05T00:45:24.047Z,0.55
2023-03-05T00:46:24.060Z,0.54
2023-03-05T00:47:24.539Z,0.54
2023-03-05T00:48:23.027Z,0.54
2023-03-05T00:49:24.039Z,0.55
2023-03-05T00:50:23.030Z,0.55
2023-03-05T00:51:24.033Z,0.56
2023-03-05T00:52:23.044Z,0.55
2023-03-05T00:53:24.045Z,0.55
2023-03-05T00:54:24.054Z,0.54
2023-03-05T00:55:24.051Z,0.55
2023-03-05T00:56:24.063Z,0.55
2023-03-05T00:57:24.098Z,0.54
2023-03-05T00:58:24.070Z,0.53
2023-03-05T00:59:24.103Z,0.54
2023-03-05T01:00:24.095Z,0.55
2023-03-05T01:01:24.112Z,0.55
2023-03-05T01:02:24.072Z,0.53
2023-03-05T01:03:24.075Z,0.53
2023-03-05T01:04:24.087Z,0.55
2023-03-05T01:05:24.144Z,0.54
2023-03-05T01:06:24.078Z,0.55
2023-03-05T01:07:24.081Z,0.55
2023-03-05T01:08:23.082Z,0.54
2023-03-05T01:09:23.098Z,0.55
2023-03-05T01:10:24.106Z,0.55
2023-03-05T01:11:23.115Z,0.54
2023-03-05T01:12:24.117Z,0.55
2023-03-05T01:13:23.166Z,0.55
2023-03-05T01:14:24.133Z,0.56
2023-03-05T01:15:23.144Z,0.55
2023-03-05T01:16:23.239Z,0.55
2023-03-05T01:17:24.164Z,0.54
2023-03-05T01:18:23.171Z,0.54
2023-03-05T01:19:23.213Z,0.56
2023-03-05T01:20:24.200Z,0.56
2023-03-05T01:21:23.326Z,0.55
2023-03-05T01:22:24.226Z,0.55
2023-03-05T01:23:23.246Z,0.54
2023-03-05T01:24:24.243Z,0.56
2023-03-05T01:25:24.254Z,0.56
2023-03-05T01:26:24.270Z,0.56
2023-03-05T01:27:24.289Z,0.56
2023-03-05T01:28:24.302Z,0.55
2023-03-05T01:29:23.360Z,0.56
2023-03-05T01:30:24.321Z,0.54
2023-03-05T01:31:24.399Z,0.56
2023-03-05T01:32:24.399Z,0.54
2023-03-05T01:33:24.373Z,0.56
2023-03-05T01:34:23.417Z,0.55
2023-03-05T01:35:23.497Z,0.55
2023-03-05T01:36:24.428Z,0.55
2023-03-05T01:37:24.443Z,0.55
2023-03-05T01:38:24.453Z,0.56
2023-03-05T01:39:24.461Z,0.55
2023-03-05T01:40:24.497Z,0.54
2023-03-05T01:41:24.506Z,0.56
2023-03-05T01:42:24.514Z,0.55
2023-03-05T01:43:24.537Z,0.56
2023-03-05T01:44:24.525Z,0.56
2023-03-05T01:45:24.655Z,0.56
2023-03-05T01:46:24.590Z,0.55
2023-03-05T01:47:24.588Z,0.55
2023-03-05T01:48:24.611Z,0.56
2023-03-05T01:49:24.641Z,0.56
2023-03-05T01:50:23.636Z,0.55
2023-03-05T01:51:24.671Z,0.56
2023-03-05T01:52:24.684Z,0.56
2023-03-05T01:53:23.710Z,0.57
2023-03-05T01:54:24.723Z,0.56
2023-03-05T01:55:24.749Z,0.55
2023-03-05T01:56:23.774Z,0.56
2023-03-05T01:57:24.774Z,0.56
2023-03-05T01:58:24.763Z,0.56
2023-03-05T01:59:24.757Z,0.56
2023-03-05T02:00:23.768Z,0.56
2023-03-05T02:01:24.894Z,0.55
2023-03-05T02:02:24.798Z,0.56
2023-03-05T02:03:23.942Z,0.55
2023-03-05T02:04:24.836Z,0.56
2023-03-05T02:05:24.825Z,0.56
2023-03-05T02:06:24.859Z,0.56
2023-03-05T02:07:24.855Z,0.55
2023-03-05T02:08:24.852Z,0.55
2023-03-05T02:09:24.860Z,0.56
2023-03-05T02:10:24.896Z,0.56
2023-03-05T02:11:24.889Z,0.56
2023-03-05T02:12:24.903Z,0.56
2023-03-05T02:13:24.920Z,0.56
2023-03-05T02:14:23.933Z,0.55
2023-03-05T02:15:23.950Z,0.56
2023-03-05T02:16:24.998Z,0.56
2023-03-05T02:17:24.998Z,0.56
2023-03-05T02:18:24.996Z,0.56
2023-03-05T02:19:25.050Z,0.57
2023-03-05T02:20:25.056Z,0.56
2023-03-05T02:21:25.041Z,0.57
2023-03-05T02:22:24.041Z,0.57
2023-03-05T02:23:25.160Z,0.57
2023-03-05T02:24:27.121Z,0.55
2023-03-05T02:25:24.054Z,0.55
2023-03-05T02:26:25.068Z,0.55
2023-03-05T02:27:25.064Z,0.57
2023-03-05T02:28:25.032Z,0.56
2023-03-05T02:29:25.039Z,0.55
2023-03-05T02:30:24.043Z,0.57
2023-03-05T02:31:25.129Z,0.56
2023-03-05T02:32:24.036Z,0.56
2023-03-05T02:33:25.074Z,0.56
2023-03-05T02:34:24.991Z,0.56
2023-03-05T02:35:25.028Z,0.57
2023-03-05T02:36:25.021Z,0.56
2023-03-05T02:37:25.555Z,0.56
2023-03-05T02:38:23.977Z,0.56
2023-03-05T02:39:24.966Z,0.56
2023-03-05T02:40:24.961Z,0.56
2023-03-05T02:41:24.972Z,0.57
2023-03-05T02:42:24.946Z,0.56
2023-03-05T02:43:24.926Z,0.56
2023-03-05T02:44:24.930Z,0.56
2023-03-05T02:45:24.939Z,0.56
2023-03-05T02:46:24.920Z,0.56
2023-03-05T02:47:24.909Z,0.57
2023-03-05T02:48:24.909Z,0.57
2023-03-05T02:49:24.928Z,0.56
2023-03-05T02:50:24.890Z,0.55
2023-03-05T02:51:24.896Z,0.56
2023-03-05T02:52:24.881Z,0.56
2023-03-05T02:53:24.866Z,0.57
2023-03-05T02:54:24.872Z,0.56
2023-03-05T02:55:24.856Z,0.56
2023-03-05T02:56:23.840Z,0.56
2023-03-05T02:57:24.859Z,0.56
2023-03-05T02:58:24.880Z,0.57
2023-03-05T02:59:24.866Z,0.56
2023-03-05T03:00:24.862Z,0.57
2023-03-05T03:01:23.881Z,0.56
2023-03-05T03:02:24.809Z,0.56
2023-03-05T03:03:24.839Z,0.55
2023-03-05T03:04:23.798Z,0.57
2023-03-05T03:05:24.831Z,0.56
2023-03-05T03:06:24.795Z,0.55
2023-03-05T03:07:24.777Z,0.56
2023-03-05T03:08:24.770Z,0.55
2023-03-05T03:09:24.788Z,0.55
2023-03-05T03:10:24.809Z,0.56
2023-03-05T03:11:24.853Z,0.56
2023-03-05T03:12:24.883Z,0.56
2023-03-05T03:13:23.862Z,0.56
2023-03-05T03:14:24.899Z,0.56
2023-03-05T03:15:24.920Z,0.56
2023-03-05T03:16:24.998Z,0.57
2023-03-05T03:17:24.990Z,0.56
2023-03-05T03:18:23.978Z,0.56
2023-03-05T03:19:25.020Z,0.56
2023-03-05T03:20:25.054Z,0.57
2023-03-05T03:21:25.089Z,0.56
2023-03-05T03:22:25.078Z,0.56
2023-03-05T03:23:25.097Z,0.56
2023-03-05T03:24:25.159Z,0.57
2023-03-05T03:25:24.163Z,0.56
2023-03-05T03:26:25.179Z,0.57
2023-03-05T03:27:25.212Z,0.56
2023-03-05T03:28:25.242Z,0.57
2023-03-05T03:29:25.354Z,0.57
2023-03-05T03:30:25.298Z,0.56
2023-03-05T03:31:24.384Z,0.56
2023-03-05T03:32:25.457Z,0.56
2023-03-05T03:33:25.368Z,0.56
2023-03-05T03:34:25.456Z,0.56
2023-03-05T03:35:25.483Z,0.54
2023-03-05T03:36:25.435Z,0.56
2023-03-05T03:37:24.475Z,0.56
2023-03-05T03:38:25.502Z,0.56
2023-03-05T03:39:24.509Z,0.57
2023-03-05T03:40:24.536Z,0.57
2023-03-05T03:41:25.573Z,0.55
2023-03-05T03:42:24.634Z,0.55
2023-03-05T03:43:25.656Z,0.57
2023-03-05T03:44:25.693Z,0.57
2023-03-05T03:45:25.726Z,0.55
2023-03-05T03:46:24.791Z,0.56
2023-03-05T03:47:25.797Z,0.56
2023-03-05T03:48:25.823Z,0.57
2023-03-05T03:49:25.853Z,0.56
2023-03-05T03:50:25.885Z,0.55
2023-03-05T03:51:25.934Z,0.57
2023-03-05T03:52:25.978Z,0.56
2023-03-05T03:53:26.014Z,0.56
2023-03-05T03:54:26.021Z,0.56
2023-03-05T03:55:26.048Z,0.56
2023-03-05T03:56:26.085Z,0.56
2023-03-05T03:57:26.128Z,0.56
2023-03-05T03:58:25.158Z,0.56
2023-03-05T03:59:26.177Z,0.57
2023-03-05T04:00:26.238Z,0.56
2023-03-05T04:01:26.252Z,0.57
2023-03-05T04:02:26.323Z,0.56
2023-03-05T04:03:25.329Z,0.55
2023-03-05T04:04:26.409Z,0.56
2023-03-05T04:05:25.387Z,0.56
2023-03-05T04:06:26.424Z,0.56
2023-03-05T04:07:26.479Z,0.56
2023-03-05T04:08:26.539Z,0.56
2023-03-05T04:09:26.546Z,0.56
2023-03-05T04:10:26.574Z,0.56
2023-03-05T04:11:26.605Z,0.55
2023-03-05T04:12:26.622Z,0.56
2023-03-05T04:13:25.654Z,0.56
2023-03-05T04:14:26.707Z,0.56
2023-03-05T04:15:26.705Z,0.56
2023-03-05T04:16:26.747Z,0.56
2023-03-05T04:17:26.785Z,0.57
2023-03-05T04:18:26.796Z,0.56
2023-03-05T04:19:26.833Z,0.56
2023-03-05T04:20:26.882Z,0.56
2023-03-05T04:21:26.904Z,0.56
2023-03-05T04:22:26.949Z,0.57
2023-03-05T04:23:26.993Z,0.56
2023-03-05T04:24:27.021Z,0.56
2023-03-05T04:25:27.071Z,0.56
2023-03-05T04:26:27.106Z,0.56
2023-03-05T04:27:27.129Z,0.56
2023-03-05T04:28:27.160Z,0.56
2023-03-05T04:29:26.217Z,0.56
2023-03-05T04:30:26.227Z,0.56
2023-03-05T04:31:27.289Z,0.56
2023-03-05T04:32:27.356Z,0.56
2023-03-05T04:33:27.319Z,0.56
2023-03-05T04:34:26.349Z,0.56
2023-03-05T04:35:27.542Z,0.57
2023-03-05T04:36:27.398Z,0.56
2023-03-05T04:37:27.447Z,0.57
2023-03-05T04:38:27.471Z,0.56
2023-03-05T04:39:27.487Z,0.56
2023-03-05T04:40:27.530Z,0.57
2023-03-05T04:41:27.577Z,0.57
2023-03-05T04:42:27.576Z,0.57
2023-03-05T04:43:27.608Z,0.56
2023-03-05T04:44:26.609Z,0.56
2023-03-05T04:45:26.659Z,0.56
2023-03-05T04:46:27.716Z,0.56
2023-03-05T04:47:26.715Z,0.56
2023-03-05T04:48:27.740Z,0.55
2023-03-05T04:49:26.778Z,0.56
2023-03-05T04:50:27.814Z,0.56
2023-03-05T04:51:27.840Z,0.57
2023-03-05T04:52:27.877Z,0.56
2023-03-05T04:53:27.890Z,0.55
2023-03-05T04:54:27.929Z,0.56
2023-03-05T04:55:27.971Z,0.57
2023-03-05T04:56:27.983Z,0.56
2023-03-05T04:57:28.039Z,0.57
2023-03-05T04:58:28.050Z,0.56
2023-03-05T04:59:28.073Z,0.57
2023-03-05T05:00:27.116Z,0.56
2023-03-05T05:01:28.151Z,0.56
2023-03-05T05:02:28.245Z,0.57
2023-03-05T05:03:28.181Z,0.56
2023-03-05T05:04:28.215Z,0.57
2023-03-05T05:05:28.258Z,0.56
2023-03-05T05:06:27.275Z,0.56
2023-03-05T05:07:28.305Z,0.56
2023-03-05T05:08:27.342Z,0.56
2023-03-05T05:09:28.377Z,0.56
2023-03-05T05:10:28.498Z,0.57
2023-03-05T05:11:28.433Z,0.56
2023-03-05T05:12:28.476Z,0.56
2023-03-05T05:13:28.527Z,0.56
2023-03-05T05:14:28.546Z,0.56
2023-03-05T05:15:28.581Z,0.56
2023-03-05T05:16:28.673Z,0.56
2023-03-05T05:17:28.650Z,0.56
2023-03-05T05:18:28.693Z,0.56
2023-03-05T05:19:28.799Z,0.56
2023-03-05T05:20:27.763Z,0.56
2023-03-05T05:21:29.592Z,0.56
2023-03-05T05:22:28.823Z,0.56
2023-03-05T05:23:28.873Z,0.56
2023-03-05T05:24:28.918Z,0.56
2023-03-05T05:25:28.941Z,0.56
2023-03-05T05:26:29.010Z,0.57
2023-03-05T05:27:29.013Z,0.57
2023-03-05T05:28:29.063Z,0.56
2023-03-05T05:29:29.123Z,0.56
2023-03-05T05:30:29.126Z,0.56
2023-03-05T05:31:28.205Z,0.56
2023-03-05T05:32:29.289Z,0.56
2023-03-05T05:33:28.251Z,0.55
2023-03-05T05:34:29.282Z,0.57
2023-03-05T05:35:29.424Z,0.56
2023-03-05T05:36:28.357Z,0.56
2023-03-05T05:37:29.403Z,0.56
2023-03-05T05:38:28.439Z,0.57
2023-03-05T05:39:29.482Z,0.56
2023-03-05T05:40:29.522Z,0.56
2023-03-05T05:41:29.560Z,0.56
2023-03-05T05:42:29.615Z,0.56
2023-03-05T05:43:29.640Z,0.56
2023-03-05T05:44:29.683Z,0.56
2023-03-05T05:45:29.934Z,0.57
2023-03-05T05:46:29.917Z,0.57
2023-03-05T05:47:28.811Z,0.57
2023-03-05T05:48:29.876Z,0.56
2023-03-05T05:49:28.925Z,0.57
2023-03-05T05:50:29.947Z,0.57
2023-03-05T05:51:30.003Z,0.56
2023-03-05T05:52:30.042Z,0.56
2023-03-05T05:53:30.077Z,0.57
2023-03-05T05:54:30.130Z,0.56
2023-03-05T05:55:29.167Z,0.56
2023-03-05T05:56:30.217Z,0.56
2023-03-05T05:57:30.268Z,0.56
2023-03-05T05:58:30.313Z,0.56
2023-03-05T05:59:30.356Z,0.56
2023-03-05T06:00:30.389Z,0.56
2023-03-05T06:01:30.459Z,0.56
2023-03-05T06:02:30.481Z,0.56
2023-03-05T06:03:30.690Z,0.56
2023-03-05T06:04:30.603Z,0.56
2023-03-05T06:05:30.635Z,0.57
2023-03-05T06:06:29.709Z,0.56
2023-03-05T06:07:29.711Z,0.56
2023-03-05T06:08:30.750Z,0.56
2023-03-05T06:09:30.777Z,0.56
2023-03-05T06:10:30.822Z,0.56
2023-03-05T06:11:30.893Z,0.56
2023-03-05T06:12:30.944Z,0.56
2023-03-05T06:13:30.971Z,0.56
2023-03-05T06:14:31.018Z,0.56
2023-03-05T06:15:31.053Z,0.57
2023-03-05T06:16:31.225Z,0.56
2023-03-05T06:17:31.104Z,0.56
2023-03-05T06:18:30.175Z,0.56
2023-03-05T06:19:31.238Z,0.56
2023-03-05T06:20:31.268Z,0.57
2023-03-05T06:21:31.315Z,0.56
2023-03-05T06:22:30.341Z,0.56
2023-03-05T06:23:31.405Z,0.56
2023-03-05T06:24:30.446Z,0.56
2023-03-05T06:25:31.482Z,0.56
2023-03-05T06:26:31.542Z,0.56
2023-03-05T06:27:31.560Z,0.56
2023-03-05T06:28:31.623Z,0.57
2023-03-05T06:29:31.656Z,0.55
2023-03-05T06:30:30.749Z,0.55
2023-03-05T06:31:31.738Z,0.56
2023-03-05T06:32:30.867Z,0.56
2023-03-05T06:33:31.882Z,0.56
2023-03-05T06:34:31.883Z,0.56
2023-03-05T06:35:30.964Z,0.57
2023-03-05T06:36:32.001Z,0.56
2023-03-05T06:37:32.024Z,0.56
2023-03-05T06:38:32.070Z,0.56
2023-03-05T06:39:32.111Z,0.56
2023-03-05T06:40:31.164Z,0.56
2023-03-05T06:41:31.215Z,0.56
2023-03-05T06:42:32.262Z,0.56
2023-03-05T06:43:32.333Z,0.56
2023-03-05T06:44:32.372Z,0.56
2023-03-05T06:45:32.427Z,0.56
2023-03-05T06:46:32.485Z,0.56
2023-03-05T06:47:32.571Z,0.56
2023-03-05T06:48:31.612Z,0.56
2023-03-05T06:49:32.712Z,0.56
2023-03-05T06:50:31.713Z,0.56
2023-03-05T06:51:32.780Z,0.56
2023-03-05T06:52:32.832Z,0.56
2023-03-05T06:53:32.883Z,0.56
2023-03-05T06:54:31.953Z,0.56
2023-03-05T06:55:33.009Z,0.56
2023-03-05T06:56:32.063Z,0.56
2023-03-05T06:57:33.119Z,0.56
2023-03-05T06:58:33.215Z,0.56
2023-03-05T06:59:32.250Z,0.56
2023-03-05T07:00:33.307Z,0.56
2023-03-05T07:01:32.424Z,0.57
2023-03-05T07:02:32.485Z,0.56
2023-03-05T07:03:33.489Z,0.56
2023-03-05T07:04:33.557Z,0.57
2023-03-05T07:05:34.304Z,0.57
2023-03-05T07:06:32.648Z,0.57
2023-03-05T07:07:33.691Z,0.56
2023-03-05T07:08:33.748Z,0.57
2023-03-05T07:09:32.821Z,0.57
2023-03-05T07:10:33.875Z,0.56
2023-03-05T07:11:33.941Z,0.57
2023-03-05T07:12:33.976Z,0.57
2023-03-05T07:13:34.026Z,0.57
2023-03-05T07:14:34.086Z,0.57
2023-03-05T07:15:33.195Z,0.57
2023-03-05T07:16:34.181Z,0.58
2023-03-05T07:17:34.265Z,0.57
2023-03-05T07:18:34.292Z,0.58
2023-03-05T07:19:34.374Z,0.57
2023-03-05T07:20:34.404Z,0.57
2023-03-05T07:21:35.452Z,0.58
2023-03-05T07:22:33.439Z,0.58
2023-03-05T07:23:34.458Z,0.57
2023-03-05T07:24:34.425Z,0.58
2023-03-05T07:25:34.436Z,0.59
2023-03-05T07:26:34.425Z,0.57
2023-03-05T07:27:34.404Z,0.58
2023-03-05T07:28:34.408Z,0.58
2023-03-05T07:29:34.397Z,0.58
2023-03-05T07:30:34.416Z,0.58
2023-03-05T07:31:34.397Z,0.57
2023-03-05T07:32:34.445Z,0.58
2023-03-05T07:33:33.369Z,0.58
2023-03-05T07:34:34.384Z,0.58
2023-03-05T07:35:33.410Z,0.58
2023-03-05T07:36:33.358Z,0.58
2023-03-05T07:37:34.368Z,0.58
2023-03-05T07:38:34.346Z,0.59
2023-03-05T07:39:34.340Z,0.58
2023-03-05T07:40:34.320Z,0.58
2023-03-05T07:41:34.317Z,0.58
2023-03-05T07:42:34.354Z,0.58
2023-03-05T07:43:34.332Z,0.57
2023-03-05T07:44:34.299Z,0.58
2023-03-05T07:45:34.278Z,0.58
2023-03-05T07:46:34.422Z,0.59
2023-03-05T07:47:33.274Z,0.58
2023-03-05T07:48:34.363Z,0.58
2023-03-05T07:49:34.402Z,0.58
2023-03-05T07:50:34.468Z,0.59
2023-03-05T07:51:33.559Z,0.58
2023-03-05T07:52:33.584Z,0.59
2023-03-05T07:53:34.680Z,0.59
2023-03-05T07:54:34.697Z,0.59
2023-03-05T07:55:34.759Z,0.58
2023-03-05T07:56:34.821Z,0.58
2023-03-05T07:57:34.865Z,0.58
2023-03-05T07:58:34.920Z,0.58
2023-03-05T07:59:33.968Z,0.58
2023-03-05T08:00:35.017Z,0.58
2023-03-05T08:01:35.080Z,0.58
2023-03-05T08:02:35.177Z,0.58
2023-03-05T08:03:35.153Z,0.59
2023-03-05T08:04:35.212Z,0.58
2023-03-05T08:05:35.237Z,0.58
2023-03-05T08:06:35.326Z,0.59
2023-03-05T08:07:35.340Z,0.58
2023-03-05T08:08:35.382Z,0.59
2023-03-05T08:09:35.469Z,0.59
2023-03-05T08:10:35.474Z,0.59
2023-03-05T08:11:35.533Z,0.58
2023-03-05T08:12:35.579Z,0.58
2023-03-05T08:13:35.640Z,0.58
2023-03-05T08:14:34.691Z,0.59
2023-03-05T08:15:35.780Z,0.58
2023-03-05T08:16:35.797Z,0.58
2023-03-05T08:17:35.866Z,0.59
2023-03-05T08:18:35.924Z,0.59
2023-03-05T08:19:35.964Z,0.59
2023-03-05T08:20:36.029Z,0.59
2023-03-05T08:21:36.104Z,0.59
2023-03-05T08:22:36.141Z,0.59
2023-03-05T08:23:36.179Z,0.58
2023-03-05T08:24:36.241Z,0.59
2023-03-05T08:25:36.302Z,0.59
2023-03-05T08:26:35.359Z,0.59
2023-03-05T08:27:36.374Z,0.60
2023-03-05T08:28:36.439Z,0.59
2023-03-05T08:29:36.507Z,0.60
2023-03-05T08:30:36.544Z,0.59
2023-03-05T08:31:36.663Z,0.59
2023-03-05T08:32:35.719Z,0.59
2023-03-05T08:33:36.721Z,0.59
2023-03-05T08:34:36.762Z,0.60
2023-03-05T08:35:35.912Z,0.59
2023-03-05T08:36:36.860Z,0.59
2023-03-05T08:37:36.929Z,0.59
2023-03-05T08:38:36.976Z,0.60
2023-03-05T08:39:36.041Z,0.59
2023-03-05T08:40:37.083Z,0.59
2023-03-05T08:41:37.153Z,0.59
2023-03-05T08:42:36.177Z,0.59
2023-03-05T08:43:36.216Z,0.60
2023-03-05T08:44:37.289Z,0.60
2023-03-05T08:45:37.336Z,0.60
2023-03-05T08:46:37.461Z,0.59
2023-03-05T08:47:37.422Z,0.60
2023-03-05T08:48:37.464Z,0.60
2023-03-05T08:49:37.508Z,0.59
2023-03-05T08:50:39.012Z,0.60
2023-03-05T08:51:37.625Z,0.59
2023-03-05T08:52:36.652Z,0.60
2023-03-05T08:53:37.697Z,0.60
2023-03-05T08:54:37.762Z,0.59
2023-03-05T08:55:37.877Z,0.59
2023-03-05T08:56:37.915Z,0.59
2023-03-05T08:57:37.970Z,0.60
2023-03-05T08:58:38.001Z,0.59
2023-03-05T08:59:38.034Z,0.60
2023-03-05T09:00:38.108Z,0.60
2023-03-05T09:01:38.241Z,0.60
2023-03-05T09:02:37.244Z,0.60
2023-03-05T09:03:38.261Z,0.60
2023-03-05T09:04:38.325Z,0.60
2023-03-05T09:05:39.232Z,0.60
2023-03-05T09:06:38.427Z,0.60
2023-03-05T09:07:38.510Z,0.60
2023-03-05T09:08:37.534Z,0.60
2023-03-05T09:09:38.594Z,0.59
2023-03-05T09:10:38.668Z,0.60
2023-03-05T09:11:38.777Z,0.60
2023-03-05T09:12:38.743Z,0.59
2023-03-05T09:13:38.866Z,0.60
2023-03-05T09:14:38.858Z,0.61
2023-03-05T09:15:38.943Z,0.60
2023-03-05T09:16:38.109Z,0.60
2023-03-05T09:17:39.059Z,0.60
2023-03-05T09:18:39.160Z,0.60
2023-03-05T09:19:39.154Z,0.61
2023-03-05T09:20:39.218Z,0.61
2023-03-05T09:21:39.269Z,0.60
2023-03-05T09:22:39.330Z,0.61
2023-03-05T09:23:39.386Z,0.60
2023-03-05T09:24:39.466Z,0.60
2023-03-05T09:25:39.508Z,0.61
2023-03-05T09:26:39.539Z,0.61
2023-03-05T09:27:38.597Z,0.60
2023-03-05T09:28:39.691Z,0.61
2023-03-05T09:29:42.557Z,0.61
2023-03-05T09:30:39.740Z,0.61
2023-03-05T09:31:39.788Z,0.61
2023-03-05T09:32:39.750Z,0.61
2023-03-05T09:33:39.701Z,0.61
2023-03-05T09:34:39.689Z,0.60
2023-03-05T09:35:39.731Z,0.60
2023-03-05T09:36:39.689Z,0.61
2023-03-05T09:37:39.661Z,0.60
2023-03-05T09:38:39.668Z,0.60
2023-03-05T09:39:39.647Z,0.60
2023-03-05T09:40:39.647Z,0.61
2023-03-05T09:41:38.623Z,0.61
2023-03-05T09:42:38.617Z,0.60
2023-03-05T09:43:39.625Z,0.61
2023-03-05T09:44:38.609Z,0.61
2023-03-05T09:45:38.646Z,0.61
2023-03-05T09:46:39.676Z,0.60
2023-03-05T09:47:38.580Z,0.61
2023-03-05T09:48:39.598Z,0.61
2023-03-05T09:49:38.574Z,0.61
2023-03-05T09:50:38.565Z,0.61
2023-03-05T09:51:39.573Z,0.62
2023-03-05T09:52:39.553Z,0.62
2023-03-05T09:53:38.549Z,0.61
2023-03-05T09:54:39.576Z,0.61
2023-03-05T09:55:38.634Z,0.61
2023-03-05T09:56:39.667Z,0.60
2023-03-05T09:57:39.716Z,0.62
2023-03-05T09:58:39.768Z,0.63
2023-03-05T09:59:39.808Z,0.61
2023-03-05T10:00:39.843Z,0.61
2023-03-05T10:01:39.933Z,0.61
2023-03-05T10:02:39.912Z,0.62
2023-03-05T10:03:40.000Z,0.62
2023-03-05T10:04:40.019Z,0.62
2023-03-05T10:05:40.031Z,0.61
2023-03-05T10:06:40.088Z,0.61
2023-03-05T10:07:40.134Z,0.61
2023-03-05T10:08:40.160Z,0.61
2023-03-05T10:09:40.233Z,0.61
2023-03-05T10:10:40.238Z,0.62
2023-03-05T10:11:39.293Z,0.61
2023-03-05T10:12:40.331Z,0.61
2023-03-05T10:13:40.380Z,0.62
2023-03-05T10:14:39.408Z,0.60
2023-03-05T10:15:40.441Z,0.61
2023-03-05T10:16:40.537Z,0.62
2023-03-05T10:17:40.506Z,0.62
2023-03-05T10:18:40.519Z,0.61
2023-03-05T10:19:40.563Z,0.62
2023-03-05T10:20:40.621Z,0.62
2023-03-05T10:21:40.335Z,0.62
2023-03-05T10:22:39.686Z,0.62
2023-03-05T10:23:39.763Z,0.61
2023-03-05T10:24:39.760Z,0.62
2023-03-05T10:25:40.816Z,0.61
2023-03-05T10:26:40.881Z,0.61
2023-03-05T10:27:40.942Z,0.61
2023-03-05T10:28:40.943Z,0.62
2023-03-05T10:29:39.985Z,0.62
2023-03-05T10:30:40.028Z,0.62
2023-03-05T10:31:41.128Z,0.61
2023-03-05T10:32:41.160Z,0.62
2023-03-05T10:33:41.165Z,0.62
2023-03-05T10:34:41.187Z,0.62
2023-03-05T10:35:41.290Z,0.62
2023-03-05T10:36:41.273Z,0.62
2023-03-05T10:37:41.314Z,0.61
2023-03-05T10:38:40.340Z,0.60
2023-03-05T10:39:41.397Z,0.61
2023-03-05T10:40:41.421Z,0.61
2023-03-05T10:41:41.476Z,0.61
2023-03-05T10:42:41.504Z,0.61
2023-03-05T10:43:41.554Z,0.62
2023-03-05T10:44:41.615Z,0.62
2023-03-05T10:45:40.733Z,0.60
2023-03-05T10:46:41.657Z,0.62
2023-03-05T10:47:41.687Z,0.61
2023-03-05T10:48:41.725Z,0.61
2023-03-05T10:49:41.798Z,0.61
2023-03-05T10:50:41.808Z,0.61
2023-03-05T10:51:41.862Z,0.61
2023-03-05T10:52:41.883Z,0.60
2023-03-05T10:53:41.920Z,0.60
2023-03-05T10:54:41.963Z,0.61
2023-03-05T10:55:41.986Z,0.61
2023-03-05T10:56:42.034Z,0.60
2023-03-05T10:57:42.056Z,0.61
2023-03-05T10:58:42.056Z,0.61
2023-03-05T10:59:42.101Z,0.61
2023-03-05T11:00:42.128Z,0.61
2023-03-05T11:01:41.206Z,0.61
2023-03-05T11:02:42.269Z,0.60
2023-03-05T11:03:42.190Z,0.61
2023-03-05T11:04:42.240Z,0.61
2023-03-05T11:05:42.281Z,0.60
2023-03-05T11:06:42.342Z,0.61
2023-03-05T11:07:42.324Z,0.61
2023-03-05T11:08:42.325Z,0.60
2023-03-05T11:09:42.365Z,0.61
2023-03-05T11:10:42.381Z,0.61
2023-03-05T11:11:41.440Z,0.61
2023-03-05T11:12:42.443Z,0.61
2023-03-05T11:13:42.460Z,0.62
2023-03-05T11:14:42.485Z,0.60
2023-03-05T11:15:42.550Z,0.61
2023-03-05T11:16:42.536Z,0.61
2023-03-05T11:17:42.555Z,0.60
2023-03-05T11:18:41.585Z,0.61
2023-03-05T11:19:42.602Z,0.61
2023-03-05T11:20:41.629Z,0.61
2023-03-05T11:21:41.687Z,0.61
2023-03-05T11:22:42.682Z,0.61
2023-03-05T11:23:41.716Z,0.60
2023-03-05T11:24:42.735Z,0.61
2023-03-05T11:25:42.762Z,0.60
2023-03-05T11:26:41.784Z,0.61
2023-03-05T11:27:42.804Z,0.61
2023-03-05T11:28:42.833Z,0.61
2023-03-05T11:29:42.858Z,0.60
2023-03-05T11:30:42.939Z,0.61
2023-03-05T11:31:41.895Z,0.61
2023-03-05T11:32:41.968Z,0.61
2023-03-05T11:33:42.952Z,0.61
2023-03-05T11:34:42.952Z,0.60
2023-03-05T11:35:43.014Z,0.61
2023-03-05T11:36:43.010Z,0.61
2023-03-05T11:37:42.064Z,0.61
2023-03-05T11:38:43.065Z,0.62
2023-03-05T11:39:43.074Z,0.61
2023-03-05T11:40:43.111Z,0.61
2023-03-05T11:41:42.153Z,0.61
2023-03-05T11:42:42.193Z,0.61
2023-03-05T11:43:43.183Z,0.61
2023-03-05T11:44:43.245Z,0.60
2023-03-05T11:45:43.234Z,0.61
2023-03-05T11:46:43.242Z,0.61
2023-03-05T11:47:43.312Z,0.60
2023-03-05T11:48:42.302Z,0.61
2023-03-05T11:49:43.326Z,0.61
2023-03-05T11:50:43.348Z,0.62
2023-03-05T11:51:43.382Z,0.62
2023-03-05T11:52:43.449Z,0.61
2023-03-05T11:53:43.545Z,0.61
2023-03-05T11:54:43.449Z,0.59
2023-03-05T11:55:42.486Z,0.61
2023-03-05T11:56:43.532Z,0.61
2023-03-05T11:57:43.560Z,0.60
2023-03-05T11:58:43.573Z,0.62
2023-03-05T11:59:43.648Z,0.61
2023-03-05T12:00:43.639Z,0.60
2023-03-05T12:01:42.636Z,0.61
2023-03-05T12:02:43.731Z,0.62
2023-03-05T12:03:42.712Z,0.61
2023-03-05T12:04:42.702Z,0.62
2023-03-05T12:05:42.714Z,0.61
2023-03-05T12:06:43.732Z,0.61
2023-03-05T12:07:43.782Z,0.61
2023-03-05T12:08:43.769Z,0.61
2023-03-05T12:09:44.223Z,0.61
2023-03-05T12:10:44.353Z,0.61
2023-03-05T12:11:42.802Z,0.62
2023-03-05T12:12:43.840Z,0.60
2023-03-05T12:13:44.027Z,0.61
2023-03-05T12:14:43.851Z,0.61
2023-03-05T12:15:43.144Z,0.61
2023-03-05T12:16:43.917Z,0.61
2023-03-05T12:17:43.899Z,0.62
2023-03-05T12:18:42.988Z,0.62
2023-03-05T12:19:43.903Z,0.61
2023-03-05T12:20:44.373Z,0.61
2023-03-05T12:21:43.322Z,0.61
2023-03-05T12:22:43.339Z,0.61
2023-03-05T12:23:44.328Z,0.61
2023-03-05T12:24:43.931Z,0.63
2023-03-05T12:25:44.266Z,0.62
2023-03-05T12:26:44.292Z,0.63
2023-03-05T12:27:43.961Z,0.61
2023-03-05T12:28:44.374Z,0.62
2023-03-05T12:29:43.982Z,0.61
2023-03-05T12:30:43.994Z,0.62
2023-03-05T12:31:44.047Z,0.61
2023-03-05T12:32:44.119Z,0.62
2023-03-05T12:33:43.051Z,0.61
2023-03-05T12:34:43.139Z,0.61
2023-03-05T12:35:43.125Z,0.61
2023-03-05T12:36:43.056Z,0.60
2023-03-05T12:37:44.095Z,0.60
2023-03-05T12:38:44.073Z,0.62
2023-03-05T12:39:44.124Z,0.61
2023-03-05T12:40:44.102Z,0.61
2023-03-05T12:41:44.397Z,0.61
2023-03-05T12:42:44.139Z,0.61
2023-03-05T12:43:44.164Z,0.62
2023-03-05T12:44:44.167Z,0.62
2023-03-05T12:45:44.189Z,0.62
2023-03-05T12:46:43.301Z,0.60
2023-03-05T12:47:43.212Z,0.62
2023-03-05T12:48:44.306Z,0.62
2023-03-05T12:49:43.257Z,0.61
2023-03-05T12:50:44.277Z,0.62
2023-03-05T12:51:44.282Z,0.61
2023-03-05T12:52:44.312Z,0.61
2023-03-05T12:53:44.327Z,0.60
2023-03-05T12:54:44.362Z,0.60
2023-03-05T12:55:44.341Z,0.60
2023-03-05T12:56:44.378Z,0.61
2023-03-05T12:57:44.429Z,0.61
2023-03-05T12:58:44.427Z,0.60
2023-03-05T12:59:43.414Z,0.61
2023-03-05T13:00:44.491Z,0.60
2023-03-05T13:01:43.488Z,0.60
2023-03-05T13:02:44.616Z,0.60
2023-03-05T13:03:43.607Z,0.60
2023-03-05T13:04:43.551Z,0.60
2023-03-05T13:05:44.586Z,0.60
2023-03-05T13:06:44.602Z,0.61
2023-03-05T13:07:44.611Z,0.60
2023-03-05T13:08:43.643Z,0.61
2023-03-05T13:09:43.664Z,0.61
2023-03-05T13:10:44.670Z,0.61
2023-03-05T13:11:44.778Z,0.60
2023-03-05T13:12:44.738Z,0.61
2023-03-05T13:13:44.781Z,0.60
2023-03-05T13:14:44.770Z,0.60
2023-03-05T13:15:44.789Z,0.60
2023-03-05T13:16:44.904Z,0.61
2023-03-05T13:17:44.853Z,0.60
2023-03-05T13:18:43.868Z,0.60